This site, now in its 22nd season, is a labour of love and fun from one of Ottawa's most avid time trialists and number crunchers. It adheres to and is permitted by the laws of Canada, promotes the objectives of every bicycle club whose results are shown, and is donated free of charge by myself for your enjoyment and usage. If you would like results from series you ride in to be shown here, give me (celia@drmath.ca) a shout!
NOTE that this site had to be quickly moved to a new server with a new version of Perl. Unfortunately the way of interacting with the web form has changed, so I'll have to do some reprogramming to get the buttons and search boxes working. Meanwhile the links work fine and you can always add query specifications into the URL! :-)


Index Page
ATT OTT WTT AATT CFCTT VVVTT
Help resultformat:
Case-sensitive

OBC Open TT Series - 2019-Aug-29 - 15km (Rockliffe Pkwy) (EvtFactor = 0.9404)

Ottawa Weather (18:00): Partly Cloudy. Temperature: 22.9C, Wind: SW 17 gust 31km/h, Humidex: 26, Relative humidity: 53%, Dew point: 13C, Pressure: 101.0kPa, Visibility: 24km.
Ottawa Weather (19:00): Partly Cloudy. Temperature: 21.5C, Wind: SSW 13km/h, Humidex: 24, Relative humidity: 57%, Dew point: 13C, Pressure: 101.0kPa, Visibility: 24km.
Ottawa Weather (20:00): Partly Cloudy. Temperature: 18.9C, Wind: SSW 10km/h, Humidex: *, Relative humidity: 68%, Dew point: 13C, Pressure: 101.1kPa, Visibility: 24km.

Thanks go to Anna Stafford for taking photos during the event. Many thanks to Peter Tregunno, Alec McKnight and Jess Raymond for running the event.




 
 

BESTS?
 
1 Fillion, Aaron  OBC 18:58 47.452 1/45 VBM 1/10 0.9482
2 Katz, Joel  OBC 20:11 44.591 2/45 VDM 1/9 0.9950
3 Boers, Daniel IND 20:14 44.481 3/45 SEM 1/1 0.9586
4 Diaz, Rodrigo  OBC 20:18 44.335 4/45 VBM 2/10 0.9444
Tremblay, Patrick RPO 20:18 44.335 4/45 VBM 2/10 0.9587
6 Rendall, Glen  RWR 20:33 43.796 6/45 VCM 1/11 0.9195
7 Pérès, Erwan IND 20:55 43.028 7/45 VCM 2/11 0.9646
8 Girard, Nicolas CDO 20:58 42.925 8/45 CAM 1/1 0.9553
9 Burge, Larry  OBC 21:31 41.828 9/45 VCM 3/11 1.0187
10 Schuck, Peter  OBC 21:33 41.763 10/45 VDM 2/9 0.9588
11 Page, Graham OBC/NTF 21:40 41.538 11/45 VAM 1/3 0.9862
12 Burge, Craig  CYC 21:41 41.507 12/45 VCM 4/11 0.9457
13 Desbiens, Martin OBC/RDO 21:47 41.316 13/45 VCM 5/11 0.9659
Milette, Laury OBC 21:47 41.316 13/45 JUF 1/1 0.9548
15 Charron, Martin RDO 21:51 41.190 15/45 VBM 4/10 1.0161
16 Posthuma, Hans  OBC 22:14 40.480 16/45 VDM 3/9 1.0090
17 Till, Michael WQW 22:16 40.419 17/45 VCM 6/11 0.9449
18 Somogyi, Michel OBC 22:18 40.359 18/45 VBM 5/10 0.9756
19 Jacob, Stephen OBC 22:22 40.238 19/45 VBM 6/10 1.2692
20 Thompson, William OBC 22:46 39.531 20/45 VCM 7/11 0.9524
21 Wright, David EUR 22:56 39.244 21/45 VCM 8/11 0.9762
22 Rivoche, Michael OBC 23:30 38.298 22/45 VDM 4/9 0.9294
23 Miller, Paul RWR 23:47 37.842 23/45 VDM 5/9 1.0298
24 Déry, Nicolas  OBC 23:51 37.736 24/45 VBM 7/10 0.9668
25 Michaud, Jonathan RDO 23:55 37.631 25/45 VBM 8/10 0.8721
26 Davis, Doug OBC 24:00 37.500 26/45 VCM 9/11 0.9328
27 Véronneau, Marc OBC 24:20 36.986 27/45 VCM 10/11 1.0000
28 Arsenault, Ariane OBC 24:32 36.685 28/45 CAF 1/1 0.8384
29 Markel, Dan OBC 24:34 36.635 29/45 VBM 9/10 1.0687
30 Boulanger, Gaetan  IND 24:47 36.315 30/45 VEM 1/4 0.8857
31 Hinz, Richard OBC 24:49 36.266 31/45 VDM 6/9 0.9045
32 Hauschildt, Gunter OBC 24:55 36.120 32/45 VCM 11/11 0.9662
33 Stulburg, Tamir OBC 24:56 36.096 33/45 VAM 2/3 1.0222
34 English. Kevin OBC 25:19 35.550 34/45 VAM 3/3 0.9534
35 Burdett, Avery  OBC 25:30 35.294 35/45 VFM 1/1 0.9404
36 Moerman, Bram  OBC 25:43 34.997 36/45 VEM 2/4 0.9578
37 Shand, Peter OBC 25:44 34.974 37/45 VDM 7/9 0.9942
38 Beauchamp, Angela  EUR 25:47 34.906 38/45 VBF 1/1 1.0493
39 Austen, Ian  OBC 25:48 34.884 39/45 VDM 8/9 0.9770
40 Veilleux, François OBC 26:09 34.417 40/45 VBM 10/10 0.8914
41 Imbrogno, Giorgio  OBC 26:12 34.351 41/45 VEM 3/4 0.9220
42 Revesz, Erika 
(dove off her bike at the turn around to avoid a car)
OBC 26:21 34.156 42/45 VDF 1/2 0.7184
43 Dore, Morley OBC 27:24 32.847 43/45 VEM 4/4 0.9711
44 McInnis, Celia  OBC 27:40 32.530 44/45 VDF 2/2 0.9072
45 Monette, Gary WQW 27:46 32.413 45/45 VDM 9/9 0.9715
 
Average Speed of all of the above 45 finishes (675km in 17:36:26):38.337
>>>Average of the Average Speeds for these 45 finishes38.691<<<
 

The number of data records shown above is 45
The server processing of your query took: 1 wallclock secs ( 0.05 usr + 0.01 sys = 0.05 CPU)

Thanks to our Helpers: Alex McKnight, Jess Raymond, Peter Tregunno

     


Apr 19 (Good Friday)
May 2 May 7 (10km) May 9 May 14 (10km) May 16 May 21 (10km) May 23 May 28 May 28 (10km) May 30
Jun 2 (40km) Jun 4 Jun 4 Jun 6 Jun 11 Jun 11 Jun 13 Jun 18 Jun 18 Jun 20 Jun 25 Jun 25 Jun 27 Jun 30 (40km)
Jul 2 Jul 2 Jul 4 Jul 9 Jul 9 Jul 11 (cancelled - lightning) Jul 16 Jul 16 Jul 18 Jul 23 Jul 23 Jul 25 Jul 28 (40km) Jul 30 Jul 30
Aug 1 Aug 6 Aug 6 Aug 8 Aug 13 Aug 13 Aug 15 Aug 20 Aug 20 Aug 22 Aug 25 (40km) Aug 27 Aug 27 (Invitational)
  Aug 29  
Sep 3 Sep 5#1 (Eddy Merckx) Sep 5#2 (With Aero) Sep 8 (40km) Sep 12 Sep 17

WTT Rankings for All Participants
5 Best Speeds     5 Best Speeds by category
OTT Best Three 15km Rankings
Overall     by category     age-Hcap Female   age-Hcap Male
Other years
TT Calculator All TT People All TT events
ABC Home VVV Home
CKAP GOLD MEDAL
Other Links

Note: OTT data from 2003 through 2006-Apr-14 and 2007-Apr-06-? and WTT from 2008-? is taken from the official OBC site.

Please send your comments and suggestions to: Celia McInnis
Copyright © 1998-2013 Celia McInnis. All rights reserved. Links are welcomed.